Terminal Aerodrome Forecast
Issued by NWS Wilmington, OH

Current Version | Previous Version | Graphics & Text | Print | Product List | Glossary On
Versions: 1 2 3 4 5 6 7 8 9 10 11 12 13 14
000
FTUS41 KILN 250500
TAFCMH
TAF
KCMH 250530Z 2506/2606 25015G22KT P6SM SCT022 OVC040
     FM250700 25014KT P6SM BKN015 OVC022
      TEMPO 2507/2509 -RASN
     FM251600 23012KT P6SM SCT015 OVC022
     FM260000 19006KT P6SM SKC=

USA.gov is the U.S. government's official web portal to all federal, state and local government web resources and services.